Pagrindinis puslapis
METAR-TAF:

METAR-TAF

Oro uostai :

Araxá, Minas Žeraisas, Brazilija

platuma: 19-33-38S, ilguma: 046-57-56W, Aukštis: 999 m

Dabartinis oras

Ataskaita buvo paskelbta 45 minutes, ne 10:00 UTC
Vėjas 5 kt iš Rytų/Šiaurės Rytų
Temperatūra 20°C
Drėgmė 94%
Slėgis 1017 hPa
Matomumas 10 km arba daugiau
Išsisklaidę debesys ne aukštis 600 ft
Su prošvaistėmis ne aukštis 1000 ft
Apsiniaukę ne aukštis 1500 ft
lietus

METAR: SBAX 091000Z 06005KT 9999 -RA SCT006 BKN010 OVC015 20/19 Q1017

Laikas: 07:45 (10:45 UTC)


TAF: trūkstamas

Orai ataskaitas ir orų prognozės (METAR, TAF).

turimą stotys yra geltonos ir raudonos taškus žemėlapyje.

Perkelti pele per norėdami pamatyti stoties vardą.

Tada spustelėkite, norėdami matyti oro stebėjimo ir prognozės.

Norėdami pakeisti žemėlapį: spustelėkite ant žalios mygtukų su juodo kryžiaus žemyn,; žalią mygtuką su brūkšneliu, jei norite nutolinti; arba žalių rodyklių gretimoms žemėlapius.


METAR-TAF: